createdAt,value
2023-05-12T00:01:05.128Z,48.52
2023-05-12T00:02:26.353Z,48.55
2023-05-12T00:04:02.127Z,48.78
2023-05-12T00:05:27.300Z,49.06
2023-05-12T00:06:49.086Z,49.38
2023-05-12T00:08:11.106Z,49.09
2023-05-12T00:09:44.505Z,49.49
2023-05-12T00:11:13.408Z,49.21
2023-05-12T00:12:35.090Z,49.14
2023-05-12T00:13:59.497Z,49.28
2023-05-12T00:15:24.150Z,49.44
2023-05-12T00:16:57.468Z,49.39
2023-05-12T00:18:28.601Z,49.75
2023-05-12T00:19:50.308Z,49.51
2023-05-12T00:21:14.340Z,49.75
2023-05-12T00:22:47.662Z,49.41
2023-05-12T00:24:21.594Z,49.61
2023-05-12T00:25:43.215Z,49.88
2023-05-12T00:27:16.619Z,49.95
2023-05-12T00:28:41.008Z,49.60
2023-05-12T00:30:02.756Z,49.88
2023-05-12T00:31:26.568Z,49.98
2023-05-12T00:32:50.839Z,50.35
2023-05-12T00:34:20.135Z,50.56
2023-05-12T00:35:42.057Z,50.42
2023-05-12T00:37:06.368Z,50.13
2023-05-12T00:38:41.899Z,50.49
2023-05-12T00:40:23.202Z,50.69
2023-05-12T00:41:47.658Z,50.54
2023-05-12T00:43:12.007Z,50.67
2023-05-12T00:44:47.717Z,50.86
2023-05-12T00:46:09.690Z,50.87
2023-05-12T00:47:32.272Z,50.67
2023-05-12T00:48:58.698Z,51.03
2023-05-12T00:50:27.875Z,50.86
2023-05-12T00:51:49.911Z,50.80
2023-05-12T00:53:13.668Z,50.95
2023-05-12T00:54:35.780Z,50.99
2023-05-12T00:56:04.960Z,50.73
2023-05-12T00:57:31.734Z,51.19
2023-05-12T00:58:55.895Z,51.16
2023-05-12T01:00:18.703Z,51.31
2023-05-12T01:01:54.001Z,51.13
2023-05-12T01:03:19.097Z,51.59
2023-05-12T01:04:51.040Z,51.25
2023-05-12T01:06:13.642Z,51.69
2023-05-12T01:07:47.125Z,51.91
2023-05-12T01:09:20.949Z,51.21
2023-05-12T01:10:45.086Z,51.77
2023-05-12T01:12:26.212Z,51.54
2023-05-12T01:13:48.063Z,51.53
2023-05-12T01:15:10.113Z,51.96
2023-05-12T01:16:32.036Z,51.63
2023-05-12T01:18:01.578Z,51.75
2023-05-12T01:19:25.800Z,51.86
2023-05-12T01:20:59.789Z,51.96
2023-05-12T01:22:33.483Z,51.99
2023-05-12T01:24:08.233Z,52.05
2023-05-12T01:25:37.811Z,52.07
2023-05-12T01:27:09.246Z,51.96
2023-05-12T01:28:33.601Z,52.23
2023-05-12T01:30:07.516Z,52.40
2023-05-12T01:31:31.972Z,52.24
2023-05-12T01:32:56.781Z,52.37
2023-05-12T01:34:19.104Z,52.24
2023-05-12T01:35:47.374Z,52.34
2023-05-12T01:37:16.289Z,52.61
2023-05-12T01:38:38.271Z,52.71
2023-05-12T01:40:03.259Z,52.88
2023-05-12T01:41:32.530Z,52.63
2023-05-12T01:42:56.310Z,52.65
2023-05-12T01:44:30.616Z,52.86
2023-05-12T01:46:12.706Z,52.70
2023-05-12T01:47:47.550Z,52.82
2023-05-12T01:49:21.444Z,52.98
2023-05-12T01:50:45.342Z,52.94
2023-05-12T01:52:24.969Z,52.83
2023-05-12T01:53:49.940Z,53.24
2023-05-12T01:55:11.892Z,52.95
2023-05-12T01:56:51.873Z,53.39
2023-05-12T01:58:20.989Z,53.12
2023-05-12T01:59:43.885Z,53.33
2023-05-12T02:01:06.240Z,53.47
2023-05-12T02:02:28.439Z,53.48
2023-05-12T02:03:50.056Z,53.47
2023-05-12T02:05:12.573Z,53.59
2023-05-12T02:06:44.599Z,53.48
2023-05-12T02:08:08.980Z,53.80
2023-05-12T02:09:33.112Z,53.86
2023-05-12T02:10:57.733Z,53.76
2023-05-12T02:12:20.342Z,53.99
2023-05-12T02:13:54.408Z,54.03
2023-05-12T02:15:23.236Z,54.03
2023-05-12T02:16:52.388Z,54.06
2023-05-12T02:18:17.106Z,54.19
2023-05-12T02:19:38.998Z,54.17
2023-05-12T02:21:08.952Z,54.23
2023-05-12T02:22:42.405Z,54.34
2023-05-12T02:24:12.355Z,54.48
2023-05-12T02:25:35.831Z,54.44
2023-05-12T02:26:59.210Z,54.63
2023-05-12T02:28:21.552Z,54.66
2023-05-12T02:29:45.654Z,54.75
2023-05-12T02:31:07.576Z,54.68
2023-05-12T02:32:34.611Z,54.69
2023-05-12T02:34:06.313Z,54.64
2023-05-12T02:35:31.690Z,54.78
2023-05-12T02:37:01.104Z,54.89
2023-05-12T02:38:22.881Z,54.81
2023-05-12T02:39:51.719Z,54.99
2023-05-12T02:41:15.786Z,55.07
2023-05-12T02:42:38.610Z,55.00
2023-05-12T02:44:03.499Z,55.35
2023-05-12T02:45:27.932Z,55.32
2023-05-12T02:46:49.592Z,55.24
2023-05-12T02:48:23.603Z,55.25
2023-05-12T02:49:45.345Z,55.31
2023-05-12T02:51:07.661Z,55.17
2023-05-12T02:52:36.832Z,55.39
2023-05-12T02:53:58.952Z,55.36
2023-05-12T02:55:30.330Z,55.52
2023-05-12T02:56:56.552Z,55.51
2023-05-12T02:58:30.331Z,55.61
2023-05-12T03:00:01.710Z,55.58
2023-05-12T03:01:26.082Z,55.71
2023-05-12T03:02:50.491Z,55.81
2023-05-12T03:04:12.512Z,56.02
2023-05-12T03:05:36.706Z,55.97
2023-05-12T03:07:05.499Z,56.08
2023-05-12T03:08:29.709Z,56.17
2023-05-12T03:10:03.311Z,56.12
2023-05-12T03:11:27.180Z,56.27
2023-05-12T03:12:51.171Z,56.44
2023-05-12T03:14:13.095Z,56.40
2023-05-12T03:15:34.988Z,56.43
2023-05-12T03:17:16.231Z,56.34
2023-05-12T03:18:41.552Z,56.37
2023-05-12T03:20:18.125Z,56.40
2023-05-12T03:21:42.747Z,56.62
2023-05-12T03:23:18.625Z,56.54
2023-05-12T03:24:52.410Z,56.54
2023-05-12T03:26:18.374Z,56.23
2023-05-12T03:27:43.233Z,56.66
2023-05-12T03:29:09.479Z,56.35
2023-05-12T03:30:33.706Z,56.56
2023-05-12T03:32:09.625Z,56.57
2023-05-12T03:33:40.541Z,56.59
2023-05-12T03:35:17.099Z,56.50
2023-05-12T03:36:57.964Z,56.52
2023-05-12T03:38:19.770Z,56.58
2023-05-12T03:39:41.643Z,56.66
2023-05-12T03:41:06.181Z,56.69
2023-05-12T03:42:28.559Z,56.57
2023-05-12T03:44:10.113Z,56.52
2023-05-12T03:45:31.633Z,56.74
2023-05-12T03:47:01.154Z,56.67
2023-05-12T03:48:27.599Z,56.71
2023-05-12T03:49:58.956Z,56.54
2023-05-12T03:51:22.640Z,56.71
2023-05-12T03:52:57.773Z,56.75
2023-05-12T03:54:19.809Z,56.78
2023-05-12T03:55:41.518Z,56.70
2023-05-12T03:57:05.265Z,56.56
2023-05-12T03:58:29.794Z,56.74
2023-05-12T04:00:06.412Z,56.69
2023-05-12T04:01:51.851Z,56.55
2023-05-12T04:03:25.875Z,56.43
2023-05-12T04:04:49.609Z,56.59
2023-05-12T04:06:18.733Z,56.36
2023-05-12T04:07:40.582Z,56.17
2023-05-12T04:09:04.692Z,56.25
2023-05-12T04:10:40.580Z,56.14
2023-05-12T04:12:05.031Z,56.22
2023-05-12T04:13:27.015Z,56.15
2023-05-12T04:15:08.701Z,56.11
2023-05-12T04:16:42.600Z,55.83
2023-05-12T04:18:18.310Z,55.82
2023-05-12T04:19:54.013Z,55.68
2023-05-12T04:21:18.284Z,55.62
2023-05-12T04:22:51.752Z,55.71
2023-05-12T04:24:14.084Z,55.74
2023-05-12T04:25:35.809Z,55.52
2023-05-12T04:26:57.635Z,55.59
2023-05-12T04:28:21.785Z,55.68
2023-05-12T04:29:43.615Z,55.60
2023-05-12T04:31:08.919Z,55.47
2023-05-12T04:32:33.564Z,55.18
2023-05-12T04:33:57.588Z,55.20
2023-05-12T04:35:19.981Z,55.06
2023-05-12T04:36:42.052Z,55.30
2023-05-12T04:38:04.416Z,55.17
2023-05-12T04:39:26.489Z,54.77
2023-05-12T04:41:03.581Z,54.95
2023-05-12T04:42:37.141Z,55.17
2023-05-12T04:44:00.976Z,54.97
2023-05-12T04:45:25.143Z,54.73
2023-05-12T04:46:56.457Z,54.59
2023-05-12T04:48:22.886Z,54.75
2023-05-12T04:49:47.013Z,55.12
2023-05-12T04:51:09.327Z,54.88
2023-05-12T04:52:30.828Z,55.13
2023-05-12T04:54:04.364Z,54.97
2023-05-12T04:55:28.339Z,54.82
2023-05-12T04:56:57.424Z,54.58
2023-05-12T04:58:19.870Z,54.53
2023-05-12T04:59:51.568Z,54.28
2023-05-12T05:01:23.503Z,54.30
2023-05-12T05:02:59.248Z,53.90
2023-05-12T05:04:24.136Z,54.17
2023-05-12T05:05:45.995Z,54.27
2023-05-12T05:07:19.337Z,53.95
2023-05-12T05:08:41.663Z,53.93
2023-05-12T05:10:13.279Z,53.62
2023-05-12T05:11:36.884Z,53.73
2023-05-12T05:13:07.006Z,53.64
2023-05-12T05:14:30.990Z,53.35
2023-05-12T05:15:52.978Z,53.89
2023-05-12T05:17:27.180Z,53.68
2023-05-12T05:19:05.731Z,53.52
2023-05-12T05:20:32.764Z,53.61
2023-05-12T05:21:56.951Z,53.71
2023-05-12T05:23:30.598Z,53.67
2023-05-12T05:24:55.066Z,53.31
2023-05-12T05:26:16.742Z,53.18
2023-05-12T05:27:38.984Z,53.34
2023-05-12T05:29:01.122Z,53.02
2023-05-12T05:30:34.373Z,52.52
2023-05-12T05:32:05.657Z,52.98
2023-05-12T05:33:29.800Z,52.89
2023-05-12T05:34:51.785Z,52.59
2023-05-12T05:36:29.421Z,52.56
2023-05-12T05:37:54.669Z,52.55
2023-05-12T05:39:22.870Z,52.31
2023-05-12T05:40:58.708Z,52.19
2023-05-12T05:42:21.349Z,52.11
2023-05-12T05:43:46.077Z,52.26
2023-05-12T05:45:10.312Z,51.43
2023-05-12T05:46:32.963Z,51.57
2023-05-12T05:47:56.753Z,51.46
2023-05-12T05:49:23.183Z,51.48
2023-05-12T05:50:47.780Z,51.51
2023-05-12T05:52:23.705Z,51.08
2023-05-12T05:53:48.573Z,51.29
2023-05-12T05:55:11.039Z,51.27
2023-05-12T05:56:33.436Z,50.62
2023-05-12T05:57:55.104Z,50.35
2023-05-12T05:59:17.755Z,50.36
2023-05-12T06:00:39.259Z,50.29
2023-05-12T06:02:01.880Z,50.18
2023-05-12T06:03:23.851Z,50.43
2023-05-12T06:04:57.114Z,50.21
2023-05-12T06:06:19.061Z,49.70
2023-05-12T06:07:43.071Z,49.40
2023-05-12T06:09:12.367Z,49.46
2023-05-12T06:10:43.600Z,49.67
2023-05-12T06:12:05.409Z,49.35
2023-05-12T06:13:38.969Z,49.26
2023-05-12T06:15:01.121Z,49.39
2023-05-12T06:16:22.741Z,48.88
2023-05-12T06:17:44.840Z,48.72
2023-05-12T06:19:06.684Z,48.41
2023-05-12T06:20:35.566Z,48.17
2023-05-12T06:21:58.011Z,47.80
2023-05-12T06:23:31.412Z,47.86
2023-05-12T06:24:53.378Z,48.08
2023-05-12T06:26:15.468Z,47.86
2023-05-12T06:27:39.353Z,47.92
2023-05-12T06:29:15.407Z,47.62
2023-05-12T06:30:39.254Z,47.76
2023-05-12T06:32:05.960Z,47.82
2023-05-12T06:33:27.827Z,47.79
2023-05-12T06:34:56.788Z,47.23
2023-05-12T06:36:33.411Z,47.38
2023-05-12T06:37:57.638Z,47.23
2023-05-12T06:39:21.936Z,47.23
2023-05-12T06:40:45.903Z,46.74
2023-05-12T06:42:07.793Z,46.71
2023-05-12T06:43:35.167Z,46.27
2023-05-12T06:45:06.152Z,46.44
2023-05-12T06:46:28.027Z,46.68
2023-05-12T06:47:59.108Z,46.60
2023-05-12T06:49:25.630Z,46.26
2023-05-12T06:51:19.429Z,45.80
2023-05-12T06:52:51.134Z,45.18
2023-05-12T06:54:15.353Z,45.31
2023-05-12T06:55:50.971Z,45.58
2023-05-12T06:57:22.744Z,45.81
2023-05-12T06:58:44.770Z,45.45
2023-05-12T07:00:07.481Z,45.17
2023-05-12T07:01:48.583Z,44.36
2023-05-12T07:03:22.301Z,44.44
2023-05-12T07:04:46.593Z,44.55
2023-05-12T07:06:08.519Z,44.76
2023-05-12T07:07:32.585Z,44.79
2023-05-12T07:08:54.571Z,45.06
2023-05-12T07:10:16.394Z,44.30
2023-05-12T07:11:37.823Z,43.92
2023-05-12T07:12:59.606Z,43.75
2023-05-12T07:14:26.062Z,43.11
2023-05-12T07:15:55.235Z,43.47
2023-05-12T07:17:19.188Z,43.20
2023-05-12T07:18:40.972Z,42.93
2023-05-12T07:20:04.873Z,42.79
2023-05-12T07:21:28.810Z,43.00
2023-05-12T07:22:57.984Z,42.72
2023-05-12T07:24:31.740Z,42.09
2023-05-12T07:25:55.406Z,42.08
2023-05-12T07:27:17.777Z,42.19
2023-05-12T07:28:39.734Z,42.12
2023-05-12T07:30:01.665Z,42.32
2023-05-12T07:31:23.540Z,42.51
2023-05-12T07:32:45.282Z,42.28
2023-05-12T07:34:07.254Z,42.07
2023-05-12T07:35:36.245Z,41.96
2023-05-12T07:37:15.377Z,40.88
2023-05-12T07:38:37.044Z,40.91
2023-05-12T07:40:05.343Z,41.07
2023-05-12T07:41:30.221Z,40.89
2023-05-12T07:42:55.172Z,40.91
2023-05-12T07:44:17.221Z,40.83
2023-05-12T07:45:38.794Z,41.29
2023-05-12T07:47:01.169Z,41.48
2023-05-12T07:48:25.537Z,41.15
2023-05-12T07:49:47.025Z,41.13
2023-05-12T07:51:08.756Z,41.18
2023-05-12T07:52:30.843Z,41.52
2023-05-12T07:54:04.732Z,41.02
2023-05-12T07:55:26.593Z,40.28
2023-05-12T07:56:48.580Z,39.69
2023-05-12T07:58:12.251Z,38.93
2023-05-12T07:59:33.690Z,38.81
2023-05-12T08:00:56.665Z,38.86
2023-05-12T08:02:21.036Z,38.98
2023-05-12T08:03:43.164Z,39.02
2023-05-12T08:05:04.861Z,38.52
2023-05-12T08:06:26.426Z,38.79
2023-05-12T08:07:50.685Z,38.46
2023-05-12T08:09:12.694Z,38.64
2023-05-12T08:10:40.126Z,38.37
2023-05-12T08:12:01.774Z,38.09
2023-05-12T08:13:23.415Z,38.04
2023-05-12T08:14:54.368Z,38.38
2023-05-12T08:16:16.176Z,38.29
2023-05-12T08:17:37.860Z,37.99
2023-05-12T08:18:59.744Z,37.12
2023-05-12T08:20:23.905Z,37.10
2023-05-12T08:21:53.618Z,37.00
2023-05-12T08:23:17.936Z,36.92
2023-05-12T08:24:41.604Z,36.89
2023-05-12T08:26:03.547Z,36.92
2023-05-12T08:27:27.762Z,36.98
2023-05-12T08:28:49.524Z,37.24
2023-05-12T08:30:13.514Z,36.89
2023-05-12T08:31:38.146Z,36.74
2023-05-12T08:33:00.249Z,36.80
2023-05-12T08:34:31.126Z,36.72
2023-05-12T08:35:52.838Z,36.64
2023-05-12T08:37:34.774Z,36.29
2023-05-12T08:38:57.009Z,36.49
2023-05-12T08:40:18.866Z,36.63
2023-05-12T08:43:57.201Z,36.18
2023-05-12T08:45:30.845Z,35.60
2023-05-12T08:46:52.700Z,35.41
2023-05-12T08:48:15.746Z,35.29
2023-05-12T08:49:44.779Z,35.85
2023-05-12T08:51:07.025Z,35.77
2023-05-12T08:52:29.447Z,35.38
2023-05-12T08:54:05.000Z,35.49
2023-05-12T08:55:32.783Z,35.23
2023-05-12T08:58:41.556Z,34.93
2023-05-12T09:00:04.810Z,34.42
2023-05-12T09:01:45.076Z,34.22
2023-05-12T09:03:09.491Z,33.97
2023-05-12T09:04:43.142Z,33.98
2023-05-12T09:06:04.620Z,33.81
2023-05-12T09:07:38.346Z,33.54
2023-05-12T09:09:11.599Z,34.01
2023-05-12T09:10:35.956Z,33.88
2023-05-12T09:12:09.536Z,33.88
2023-05-12T09:13:31.235Z,34.22
2023-05-12T09:14:52.999Z,33.86
2023-05-12T09:16:14.784Z,33.81
2023-05-12T09:17:38.548Z,33.88
2023-05-12T09:19:00.309Z,34.02
2023-05-12T09:20:30.914Z,33.62
2023-05-12T09:21:53.057Z,33.67
2023-05-12T09:23:14.776Z,33.81
2023-05-12T09:24:39.042Z,33.56
2023-05-12T09:26:12.576Z,33.50
2023-05-12T09:27:34.256Z,33.28
2023-05-12T09:28:58.040Z,32.66
2023-05-12T09:30:22.595Z,33.43
2023-05-12T09:31:46.809Z,33.41
2023-05-12T09:33:08.489Z,33.22
2023-05-12T09:34:41.755Z,33.18
2023-05-12T09:36:03.248Z,33.45
2023-05-12T09:37:25.316Z,33.56
2023-05-12T09:38:47.183Z,32.72
2023-05-12T09:40:08.781Z,33.55
2023-05-12T09:41:30.213Z,33.60
2023-05-12T09:42:54.430Z,33.36
2023-05-12T09:44:26.795Z,33.16
2023-05-12T09:45:50.888Z,32.57
2023-05-12T09:47:12.631Z,32.62
2023-05-12T09:48:38.946Z,32.42
2023-05-12T09:50:01.560Z,32.05
2023-05-12T09:51:23.503Z,32.44
2023-05-12T09:52:45.436Z,32.48
2023-05-12T09:54:08.029Z,31.81
2023-05-12T09:55:30.015Z,31.81
2023-05-12T09:57:03.811Z,31.96
2023-05-12T09:58:40.519Z,32.72
2023-05-12T10:00:02.359Z,32.63
2023-05-12T10:01:27.313Z,32.51
2023-05-12T10:02:48.888Z,31.91
2023-05-12T10:04:10.674Z,32.18
2023-05-12T10:05:40.069Z,31.86
2023-05-12T10:07:08.788Z,31.64
2023-05-12T10:08:30.751Z,31.55
2023-05-12T10:09:54.497Z,31.22
2023-05-12T10:11:27.951Z,31.92
2023-05-12T10:12:52.763Z,32.11
2023-05-12T10:14:16.682Z,32.38
2023-05-12T10:15:58.499Z,31.27
2023-05-12T10:17:22.768Z,31.09
2023-05-12T10:18:59.288Z,30.60
2023-05-12T10:20:21.267Z,30.25
2023-05-12T10:22:00.016Z,30.70
2023-05-12T10:23:24.182Z,31.22
2023-05-12T10:25:04.944Z,31.01
2023-05-12T10:26:36.427Z,30.62
2023-05-12T10:28:00.949Z,30.95
2023-05-12T10:29:29.915Z,30.37
2023-05-12T10:31:04.513Z,31.14
2023-05-12T10:32:33.129Z,30.90
2023-05-12T10:33:55.040Z,30.82
2023-05-12T10:35:28.447Z,31.21
2023-05-12T10:37:09.185Z,30.68
2023-05-12T10:38:33.058Z,30.79
2023-05-12T10:40:08.473Z,31.36
2023-05-12T10:41:51.147Z,30.88
2023-05-12T10:43:37.091Z,30.65
2023-05-12T10:45:07.055Z,30.37
2023-05-12T10:46:41.993Z,29.72
2023-05-12T10:48:10.777Z,30.13
2023-05-12T10:49:44.584Z,29.67
2023-05-12T10:51:14.005Z,29.59
2023-05-12T10:52:37.857Z,29.54
2023-05-12T10:54:14.791Z,28.97
2023-05-12T10:55:56.930Z,28.32
2023-05-12T10:57:34.523Z,28.35
2023-05-12T10:59:31.536Z,28.30
2023-05-12T11:00:56.087Z,28.53
2023-05-12T11:02:34.740Z,27.59
2023-05-12T11:04:01.261Z,27.82
2023-05-12T11:05:25.806Z,27.67
2023-05-12T11:06:51.601Z,27.07
2023-05-12T11:08:14.224Z,27.17
2023-05-12T11:09:37.973Z,27.04
2023-05-12T11:11:06.707Z,27.67
2023-05-12T11:12:40.127Z,27.31
2023-05-12T11:14:15.820Z,27.79
2023-05-12T11:15:51.164Z,27.52
2023-05-12T11:17:27.334Z,27.52
2023-05-12T11:18:59.103Z,27.47
2023-05-12T11:20:20.954Z,27.75
2023-05-12T11:21:47.831Z,27.21
2023-05-12T11:23:28.645Z,27.12
2023-05-12T11:24:50.544Z,27.35
2023-05-12T11:26:17.337Z,26.47
2023-05-12T11:27:44.697Z,26.33
2023-05-12T11:29:14.265Z,26.00
2023-05-12T11:30:35.922Z,26.11
2023-05-12T11:32:00.401Z,25.87
2023-05-12T11:33:22.891Z,25.92
2023-05-12T11:34:58.459Z,26.18
2023-05-12T11:36:27.516Z,26.15
2023-05-12T11:38:03.561Z,25.89
2023-05-12T11:39:40.956Z,25.85
2023-05-12T11:41:14.510Z,26.11
2023-05-12T11:42:57.497Z,25.61
2023-05-12T11:44:21.690Z,25.18
2023-05-12T11:45:55.280Z,25.03
2023-05-12T11:47:28.456Z,24.27
2023-05-12T11:49:22.269Z,24.72
2023-05-12T11:50:44.083Z,25.21
2023-05-12T11:52:07.873Z,25.14
2023-05-12T11:53:43.573Z,24.77
2023-05-12T11:55:28.891Z,24.15
2023-05-12T11:57:02.515Z,24.21
2023-05-12T11:58:30.619Z,24.81
2023-05-12T12:00:15.626Z,24.69
2023-05-12T12:01:37.512Z,24.90
2023-05-12T12:03:11.311Z,23.98
2023-05-12T12:05:06.568Z,23.92
2023-05-12T12:06:32.269Z,23.96
2023-05-12T12:07:55.992Z,23.94
2023-05-12T12:09:30.636Z,24.15
2023-05-12T12:11:11.296Z,24.29
2023-05-12T12:12:52.436Z,24.53
2023-05-12T12:14:16.228Z,23.61
2023-05-12T12:15:50.391Z,23.21
2023-05-12T12:17:31.391Z,23.24
2023-05-12T12:19:07.484Z,23.61
2023-05-12T12:20:31.401Z,23.12
2023-05-12T12:22:16.340Z,22.68
2023-05-12T12:23:50.527Z,22.79
2023-05-12T12:25:13.303Z,22.93
2023-05-12T12:26:38.899Z,23.26
2023-05-12T12:28:08.406Z,22.89
2023-05-12T12:29:43.860Z,22.66
2023-05-12T12:31:10.087Z,22.83
2023-05-12T12:32:45.445Z,22.91
2023-05-12T12:34:19.205Z,22.99
2023-05-12T12:36:04.216Z,22.30
2023-05-12T12:37:37.880Z,23.03
2023-05-12T12:38:59.298Z,22.88
2023-05-12T12:40:35.100Z,22.47
2023-05-12T12:41:58.979Z,22.57
2023-05-12T12:43:23.243Z,21.99
2023-05-12T12:44:59.238Z,22.03
2023-05-12T12:46:28.874Z,21.84
2023-05-12T12:48:14.095Z,22.40
2023-05-12T12:49:47.454Z,22.45
2023-05-12T12:51:45.677Z,22.16
2023-05-12T12:53:09.778Z,22.33
2023-05-12T12:54:32.070Z,22.33
2023-05-12T12:56:07.944Z,22.23
2023-05-12T12:57:29.760Z,21.92
2023-05-12T12:58:58.602Z,21.97
2023-05-12T13:00:32.435Z,21.89
2023-05-12T13:02:07.777Z,21.67
2023-05-12T13:03:29.872Z,21.76
2023-05-12T13:05:05.222Z,21.75
2023-05-12T13:06:29.447Z,22.05
2023-05-12T13:07:53.488Z,21.59
2023-05-12T13:09:22.773Z,21.27
2023-05-12T13:10:54.552Z,20.94
2023-05-12T13:12:30.402Z,21.12
2023-05-12T13:13:52.000Z,20.79
2023-05-12T13:15:17.491Z,20.56
2023-05-12T13:16:58.350Z,21.58
2023-05-12T13:18:31.962Z,21.15
2023-05-12T13:20:17.244Z,20.89
2023-05-12T13:21:58.590Z,20.99
2023-05-12T13:23:39.410Z,21.06
2023-05-12T13:25:16.559Z,21.18
2023-05-12T13:26:52.202Z,21.61
2023-05-12T13:28:32.797Z,20.54
2023-05-12T13:30:14.083Z,20.10
2023-05-12T13:31:47.380Z,19.91
2023-05-12T13:33:16.408Z,19.79
2023-05-12T13:34:47.352Z,20.03
2023-05-12T13:36:16.925Z,20.28
2023-05-12T13:38:01.817Z,19.58
2023-05-12T13:39:46.063Z,19.94
2023-05-12T13:41:10.251Z,19.60
2023-05-12T13:42:46.820Z,19.81
2023-05-12T13:44:22.825Z,19.50
2023-05-12T13:46:07.952Z,19.52
2023-05-12T13:47:43.507Z,19.71
2023-05-12T13:49:28.404Z,18.81
2023-05-12T13:50:57.585Z,19.35
2023-05-12T13:52:43.329Z,19.59
2023-05-12T13:54:14.706Z,19.75
2023-05-12T13:55:52.310Z,19.71
2023-05-12T13:57:25.840Z,19.69
2023-05-12T13:58:49.517Z,19.86
2023-05-12T14:00:30.534Z,20.49
2023-05-12T14:02:16.221Z,19.84
2023-05-12T14:04:01.056Z,20.27
2023-05-12T14:05:34.854Z,19.95
2023-05-12T14:06:59.015Z,19.95
2023-05-12T14:08:32.332Z,19.66
2023-05-12T14:10:18.568Z,19.45
2023-05-12T14:11:52.000Z,20.04
2023-05-12T14:13:21.275Z,19.93
2023-05-12T14:14:58.104Z,20.33
2023-05-12T14:16:25.992Z,20.43
2023-05-12T14:18:00.007Z,20.54
2023-05-12T14:19:40.596Z,21.27
2023-05-12T14:21:25.751Z,21.84
2023-05-12T14:23:01.570Z,21.94
2023-05-12T14:24:32.889Z,21.89
2023-05-12T14:25:58.814Z,21.93
2023-05-12T14:27:32.242Z,21.96
2023-05-12T14:29:12.816Z,21.70
2023-05-12T14:30:48.406Z,21.57
2023-05-12T14:32:26.566Z,21.64
2023-05-12T14:34:11.234Z,21.87
2023-05-12T14:35:55.787Z,22.04
2023-05-12T14:37:24.047Z,22.21
2023-05-12T14:39:04.395Z,22.28
2023-05-12T14:40:52.258Z,22.21
2023-05-12T14:42:38.160Z,21.80
2023-05-12T14:44:15.221Z,21.71
2023-05-12T14:46:00.427Z,21.39
2023-05-12T14:47:24.543Z,20.98
2023-05-12T14:48:53.409Z,21.14
2023-05-12T14:50:28.207Z,20.81
2023-05-12T14:51:55.586Z,20.58
2023-05-12T14:53:50.553Z,20.16
2023-05-12T14:55:12.443Z,20.45
2023-05-12T14:56:48.169Z,19.58
2023-05-12T14:58:34.773Z,19.72
2023-05-12T15:00:29.333Z,19.82
2023-05-12T15:02:02.557Z,19.22
2023-05-12T15:03:36.036Z,19.02
2023-05-12T15:05:07.054Z,18.72
2023-05-12T15:06:43.721Z,19.17
2023-05-12T15:08:29.152Z,19.01
2023-05-12T15:10:10.607Z,18.77
2023-05-12T15:11:50.701Z,18.67
2023-05-12T15:13:21.437Z,18.61
2023-05-12T15:15:06.145Z,18.60
2023-05-12T15:16:28.237Z,18.63
2023-05-12T15:17:52.818Z,18.00
2023-05-12T15:19:17.528Z,18.69
2023-05-12T15:20:41.816Z,18.34
2023-05-12T15:22:07.948Z,18.73
2023-05-12T15:23:43.254Z,18.54
2023-05-12T15:25:16.831Z,18.65
2023-05-12T15:26:49.931Z,18.73
2023-05-12T15:28:43.580Z,18.44
2023-05-12T15:30:12.513Z,18.56
2023-05-12T15:32:05.480Z,18.92
2023-05-12T15:33:39.433Z,18.84
2023-05-12T15:35:12.981Z,19.19
2023-05-12T15:36:57.603Z,19.16
2023-05-12T15:38:32.955Z,19.24
2023-05-12T15:40:18.092Z,19.32
2023-05-12T15:41:50.862Z,19.50
2023-05-12T15:43:12.636Z,19.42
2023-05-12T15:44:57.380Z,19.51
2023-05-12T15:46:33.473Z,19.76
2023-05-12T15:48:07.983Z,19.98
2023-05-12T15:50:03.589Z,20.06
2023-05-12T15:51:36.730Z,19.86
2023-05-12T15:52:58.540Z,20.02
2023-05-12T15:54:39.336Z,19.56
2023-05-12T15:56:15.104Z,19.65
2023-05-12T15:57:39.144Z,19.82
2023-05-12T15:59:14.553Z,19.91
2023-05-12T16:00:59.294Z,19.89
2023-05-12T16:02:33.433Z,20.38
2023-05-12T16:04:07.184Z,20.69
2023-05-12T16:05:41.224Z,20.77
2023-05-12T16:07:03.300Z,21.31
2023-05-12T16:08:25.229Z,21.42
2023-05-12T16:09:49.193Z,21.63
2023-05-12T16:11:18.283Z,22.21
2023-05-12T16:12:42.701Z,22.36
2023-05-12T16:14:16.471Z,22.88
2023-05-12T16:15:56.940Z,22.96
2023-05-12T16:17:32.386Z,23.05
2023-05-12T16:19:15.205Z,23.24
2023-05-12T16:20:37.068Z,23.73
2023-05-12T16:21:59.417Z,24.34
2023-05-12T16:23:34.763Z,24.64
2023-05-12T16:25:10.302Z,24.74
2023-05-12T16:26:55.092Z,24.73
2023-05-12T16:28:40.053Z,25.29
2023-05-12T16:30:20.730Z,25.37
2023-05-12T16:31:53.896Z,25.57
2023-05-12T16:33:27.398Z,25.84
2023-05-12T16:35:00.621Z,25.74
2023-05-12T16:36:24.179Z,25.99
2023-05-12T16:38:04.352Z,26.24
2023-05-12T16:39:38.462Z,26.33
2023-05-12T16:41:02.582Z,26.36
2023-05-12T16:42:47.292Z,26.55
2023-05-12T16:44:20.675Z,26.81
2023-05-12T16:45:57.126Z,26.73
2023-05-12T16:47:21.177Z,27.11
2023-05-12T16:48:50.816Z,27.24
2023-05-12T16:50:12.503Z,27.47
2023-05-12T16:51:44.250Z,27.65
2023-05-12T16:53:06.490Z,27.60
2023-05-12T16:54:28.195Z,27.53
2023-05-12T16:55:51.933Z,27.82
2023-05-12T16:57:16.060Z,27.75
2023-05-12T16:58:42.323Z,27.83
2023-05-12T17:00:06.655Z,28.21
2023-05-12T17:01:38.252Z,28.60
2023-05-12T17:03:00.947Z,28.36
2023-05-12T17:04:43.315Z,28.62
2023-05-12T17:06:05.207Z,28.67
2023-05-12T17:07:28.936Z,28.90
2023-05-12T17:08:55.098Z,28.95
2023-05-12T17:10:19.573Z,28.95
2023-05-12T17:11:55.186Z,29.36
2023-05-12T17:13:16.986Z,29.25
2023-05-12T17:14:38.877Z,29.40
2023-05-12T17:16:00.575Z,29.62
2023-05-12T17:17:36.340Z,29.69
2023-05-12T17:20:45.861Z,29.89
2023-05-12T17:22:19.328Z,30.44
2023-05-12T17:23:48.634Z,31.72
2023-05-12T17:25:12.969Z,31.25
2023-05-12T17:26:34.808Z,31.23
2023-05-12T17:27:58.792Z,32.11
2023-05-12T17:29:34.813Z,32.27
2023-05-12T17:31:08.653Z,32.70
2023-05-12T17:32:41.898Z,32.79
2023-05-12T17:34:10.791Z,32.67
2023-05-12T17:35:35.828Z,33.25
2023-05-12T17:37:08.968Z,33.59
2023-05-12T17:38:30.645Z,33.88
2023-05-12T17:39:52.368Z,33.49
2023-05-12T17:41:14.351Z,33.53
2023-05-12T17:42:45.777Z,33.18
2023-05-12T17:44:10.067Z,33.33
2023-05-12T17:45:47.357Z,33.43
2023-05-12T17:47:17.136Z,33.71
2023-05-12T17:48:39.009Z,33.79
2023-05-12T17:50:12.019Z,33.40
2023-05-12T17:51:33.631Z,33.92
2023-05-12T17:52:57.421Z,33.24
2023-05-12T17:54:24.601Z,33.44
2023-05-12T17:55:51.268Z,33.38
2023-05-12T17:57:13.244Z,33.56
2023-05-12T17:58:44.405Z,33.27
2023-05-12T18:00:13.512Z,33.58
2023-05-12T18:01:49.754Z,33.55
2023-05-12T18:03:23.172Z,33.38
2023-05-12T18:05:08.027Z,33.84
2023-05-12T18:06:41.600Z,33.78
2023-05-12T18:08:13.205Z,33.84
2023-05-12T18:09:56.239Z,34.04
2023-05-12T18:11:41.295Z,33.93
2023-05-12T18:13:15.416Z,34.46
2023-05-12T18:15:00.219Z,34.54
2023-05-12T18:16:33.969Z,34.52
2023-05-12T18:18:07.772Z,33.91
2023-05-12T18:19:40.870Z,34.37
2023-05-12T18:21:02.828Z,34.22
2023-05-12T18:22:36.207Z,34.34
2023-05-12T18:24:00.316Z,34.75
2023-05-12T18:25:40.773Z,34.66
2023-05-12T18:27:04.526Z,34.88
2023-05-12T18:28:34.775Z,34.66
2023-05-12T18:29:56.129Z,35.01
2023-05-12T18:31:33.302Z,34.59
2023-05-12T18:33:09.605Z,34.68
2023-05-12T18:34:33.774Z,35.00
2023-05-12T18:36:02.913Z,35.11
2023-05-12T18:37:36.274Z,35.12
2023-05-12T18:39:00.206Z,34.95
2023-05-12T18:40:29.959Z,35.53
2023-05-12T18:41:51.651Z,35.55
2023-05-12T18:43:15.800Z,35.66
2023-05-12T18:44:42.122Z,35.98
2023-05-12T18:46:03.920Z,35.69
2023-05-12T18:47:33.353Z,35.79
2023-05-12T18:48:55.468Z,36.07
2023-05-12T18:50:19.717Z,35.83
2023-05-12T18:51:43.576Z,35.96
2023-05-12T18:53:05.368Z,36.01
2023-05-12T18:54:27.426Z,36.08
2023-05-12T18:55:51.582Z,36.33
2023-05-12T18:57:15.261Z,36.23
2023-05-12T18:58:38.843Z,36.78
2023-05-12T19:00:00.417Z,36.67
2023-05-12T19:01:24.686Z,36.62
2023-05-12T19:02:47.658Z,37.16
2023-05-12T19:04:11.985Z,37.23
2023-05-12T19:05:34.076Z,37.27
2023-05-12T19:06:55.613Z,37.62
2023-05-12T19:08:19.778Z,37.36
2023-05-12T19:09:41.977Z,37.95
2023-05-12T19:11:11.396Z,38.31
2023-05-12T19:12:33.228Z,38.02
2023-05-12T19:13:54.930Z,38.30